Time;durP1;ratioP1;P1;durP2;ratioP2;P2;SDS_P1;SDS_P2;PMS_P1;PMS_P2;Temp;Humidity;BMP_temperature;BMP_pressure;BME280_temperature;BME280_humidity;BME280_pressure;Samples;Min_cycle;Max_cycle;Signal;HPM_P1;HPM_P2
2023/10/06 00:00:53;;;;;;;1999.90;999.90;;;13.20;99.90;;;;;;5095201;28;20440;-67
2023/10/06 00:03:22;;;;;;;1999.90;999.90;;;13.20;99.90;;;;;;5095748;28;20426;-68
2023/10/06 00:05:48;;;;;;;1999.90;999.90;;;13.20;99.90;;;;;;5095045;28;20499;-69
2023/10/06 00:08:31;;;;;;;1999.90;999.90;;;13.30;99.90;;;;;;5095299;28;20414;-69
2023/10/06 00:11:10;;;;;;;1999.90;999.90;;;13.20;99.90;;;;;;5094981;28;20529;-69
2023/10/06 00:13:37;;;;;;;1999.90;999.90;;;13.20;99.90;;;;;;5095171;28;20443;-69
2023/10/06 00:16:07;;;;;;;1999.90;999.90;;;13.20;99.90;;;;;;5094809;28;20412;-69
2023/10/06 00:18:37;;;;;;;1999.90;999.90;;;13.10;99.90;;;;;;5094640;28;20450;-69
2023/10/06 00:21:14;;;;;;;1999.90;999.90;;;13.10;99.90;;;;;;5094893;28;20414;-69
2023/10/06 00:23:43;;;;;;;1999.90;999.90;;;13.10;99.90;;;;;;5094426;28;20437;-69
2023/10/06 00:26:16;;;;;;;1999.90;999.90;;;13.10;99.90;;;;;;5094470;28;20753;-68
2023/10/06 00:28:44;;;;;;;1999.90;999.90;;;13.10;99.90;;;;;;5094520;28;20501;-68
2023/10/06 00:31:11;;;;;;;1999.90;999.90;;;13.10;99.90;;;;;;5094500;28;20501;-69
2023/10/06 00:33:37;;;;;;;1999.90;999.90;;;13.10;99.90;;;;;;5094000;28;20823;-69
2023/10/06 00:36:14;;;;;;;1999.90;999.90;;;13.10;99.90;;;;;;5094029;28;20412;-68
2023/10/06 00:38:50;;;;;;;1999.90;999.90;;;13.00;99.90;;;;;;5094102;28;20476;-69
2023/10/06 00:41:17;;;;;;;1999.90;999.90;;;13.00;99.90;;;;;;5094391;28;20990;-69
2023/10/06 00:43:46;;;;;;;1999.90;999.90;;;13.00;99.90;;;;;;5093774;28;20490;-67
2023/10/06 00:46:14;;;;;;;1999.90;999.90;;;12.90;99.90;;;;;;5092889;28;20927;-69
2023/10/06 00:48:44;;;;;;;1999.90;999.90;;;12.90;99.90;;;;;;5093524;28;20404;-68
2023/10/06 00:51:21;;;;;;;1999.90;999.90;;;13.00;99.90;;;;;;5093694;28;20482;-69
2023/10/06 00:53:56;;;;;;;1999.90;999.90;;;13.00;99.90;;;;;;5093667;28;20424;-69
2023/10/06 00:56:23;;;;;;;1999.90;999.90;;;13.00;99.90;;;;;;5093674;28;20933;-69
2023/10/06 00:58:49;;;;;;;1999.90;999.90;;;12.90;99.90;;;;;;5093687;28;20451;-69
2023/10/06 01:01:17;;;;;;;1999.90;999.90;;;12.90;99.90;;;;;;5093966;28;21187;-69
2023/10/06 01:03:44;;;;;;;1999.90;999.90;;;12.90;99.90;;;;;;5093812;28;20430;-69
2023/10/06 01:06:14;;;;;;;1999.90;999.90;;;12.80;99.90;;;;;;5093433;28;20504;-69
2023/10/06 01:08:54;;;;;;;1999.90;999.90;;;12.80;99.90;;;;;;5093125;28;20800;-68
2023/10/06 01:11:26;;;;;;;1999.90;999.90;;;12.80;99.90;;;;;;5092005;28;20440;-68
2023/10/06 01:13:58;;;;;;;1999.90;999.90;;;12.90;99.90;;;;;;5092053;28;20416;-68
2023/10/06 01:16:37;;;;;;;1999.90;999.90;;;12.80;99.90;;;;;;5092286;28;20905;-71
2023/10/06 01:19:14;;;;;;;1999.90;999.90;;;12.70;99.90;;;;;;5092073;28;20408;-68
2023/10/06 01:21:53;;;;;;;1999.90;999.90;;;12.70;99.90;;;;;;5092102;28;20432;-67
2023/10/06 01:24:25;;;;;;;1999.90;999.90;;;12.70;99.90;;;;;;5092003;28;20392;-68
2023/10/06 01:26:52;;;;;;;1999.90;999.90;;;12.70;99.90;;;;;;5091822;28;20405;-68
2023/10/06 01:29:22;;;;;;;1999.90;999.90;;;12.70;99.90;;;;;;5092154;28;20757;-68
2023/10/06 01:31:49;;;;;;;1999.90;999.90;;;12.70;99.90;;;;;;5091879;28;20595;-69
2023/10/06 01:34:15;;;;;;;1999.90;999.90;;;12.70;99.90;;;;;;5091989;28;20496;-67
2023/10/06 01:36:45;;;;;;;1999.90;999.90;;;12.60;99.90;;;;;;5091676;28;20622;-67
2023/10/06 01:39:16;;;;;;;1999.90;999.90;;;12.60;99.90;;;;;;5092100;28;20169;-67
2023/10/06 01:41:46;;;;;;;1999.90;999.90;;;12.60;99.90;;;;;;5091930;28;20435;-67
2023/10/06 01:44:15;;;;;;;1999.90;999.90;;;12.60;99.90;;;;;;5091937;28;20785;-68
2023/10/06 01:46:44;;;;;;;1999.90;999.90;;;12.60;99.90;;;;;;5091603;28;20804;-67
2023/10/06 01:49:10;;;;;;;1999.90;999.90;;;12.50;99.90;;;;;;5091703;28;20407;-68
2023/10/06 01:51:39;;;;;;;1999.90;999.90;;;12.50;99.90;;;;;;5091894;28;20454;-68
2023/10/06 01:54:12;;;;;;;1999.90;999.90;;;12.40;99.90;;;;;;5091798;28;20403;-67
2023/10/06 01:56:44;;;;;;;1999.90;999.90;;;12.50;99.90;;;;;;5093239;28;20406;-67
2023/10/06 01:59:10;;;;;;;1999.90;999.90;;;12.50;99.90;;;;;;5095821;28;20881;-67
2023/10/06 02:01:40;;;;;;;1999.90;999.90;;;12.50;99.90;;;;;;5095594;28;20432;-68
2023/10/06 02:04:08;;;;;;;1999.90;999.90;;;12.40;99.90;;;;;;5095644;28;20897;-68
2023/10/06 02:06:34;;;;;;;1999.90;999.90;;;12.40;99.90;;;;;;5095287;28;20410;-67
2023/10/06 02:08:59;;;;;;;1999.90;999.90;;;12.40;99.90;;;;;;5095530;28;20415;-67
2023/10/06 02:11:30;;;;;;;1999.90;999.90;;;12.40;99.90;;;;;;5095278;28;20215;-67
2023/10/06 02:13:57;;;;;;;1999.90;999.90;;;12.40;99.90;;;;;;5095350;28;20180;-67
2023/10/06 02:16:26;;;;;;;1999.90;999.90;;;12.40;99.90;;;;;;5095637;28;20442;-68
2023/10/06 02:18:54;;;;;;;1999.90;999.90;;;12.40;99.90;;;;;;5095448;28;20492;-67
2023/10/06 02:21:24;;;;;;;1999.90;999.90;;;12.30;99.90;;;;;;5095358;28;20513;-67
2023/10/06 02:23:51;;;;;;;1999.90;999.90;;;12.40;99.90;;;;;;5095359;28;20425;-67
2023/10/06 02:26:17;;;;;;;1999.90;999.90;;;12.30;99.90;;;;;;5095174;28;20431;-69
2023/10/06 02:28:48;;;;;;;1999.90;999.90;;;12.30;99.90;;;;;;5094927;28;20444;-68
2023/10/06 02:31:14;;;;;;;1999.90;999.90;;;12.30;99.90;;;;;;5095101;28;20422;-67
2023/10/06 02:33:41;;;;;;;1999.90;999.90;;;12.30;99.90;;;;;;5095200;28;20445;-67
2023/10/06 02:36:17;;;;;;;1999.90;999.90;;;12.30;99.90;;;;;;5095060;28;20454;-68
2023/10/06 02:38:49;;;;;;;1999.90;999.90;;;12.20;99.90;;;;;;5094715;28;20456;-68
2023/10/06 02:41:26;;;;;;;1999.90;999.90;;;12.20;99.90;;;;;;5094847;28;20416;-68
2023/10/06 02:43:53;;;;;;;1999.90;999.90;;;12.20;99.90;;;;;;5094838;28;20452;-68
2023/10/06 02:46:23;;;;;;;1999.90;999.90;;;12.20;99.90;;;;;;5094826;28;20457;-68
2023/10/06 02:48:49;;;;;;;1999.90;999.90;;;12.20;99.90;;;;;;5094576;28;20485;-68
2023/10/06 02:51:18;;;;;;;1999.90;999.90;;;12.10;99.90;;;;;;5094637;28;20427;-68
2023/10/06 02:53:49;;;;;;;1999.90;999.90;;;12.10;99.90;;;;;;5094694;28;20414;-68
2023/10/06 02:56:16;;;;;;;1999.90;999.90;;;12.10;99.90;;;;;;5094873;28;20427;-68
2023/10/06 02:58:42;;;;;;;1999.90;999.90;;;12.00;99.90;;;;;;5094474;28;20550;-68
2023/10/06 03:01:11;;;;;;;1999.90;999.90;;;12.00;99.90;;;;;;5094559;28;20432;-68
2023/10/06 03:03:37;;;;;;;1999.90;999.90;;;12.00;99.90;;;;;;5094579;28;20488;-68
2023/10/06 03:06:07;;;;;;;1999.90;999.90;;;12.00;99.90;;;;;;5094331;28;20489;-68
2023/10/06 03:08:35;;;;;;;1999.90;999.90;;;11.90;99.90;;;;;;5093624;28;20409;-68
2023/10/06 03:11:01;;;;;;;1999.90;999.90;;;11.90;99.90;;;;;;5094326;28;20452;-69
2023/10/06 03:13:35;;;;;;;1999.90;999.90;;;11.90;99.90;;;;;;5094477;28;20401;-68
2023/10/06 03:16:01;;;;;;;1999.90;999.90;;;11.90;99.90;;;;;;5094277;28;20417;-68
2023/10/06 03:18:28;;;;;;;1999.90;999.90;;;11.80;99.90;;;;;;5094097;28;20457;-67
2023/10/06 03:21:00;;;;;;;1999.90;999.90;;;11.80;99.90;;;;;;5093991;28;20425;-67
2023/10/06 03:23:38;;;;;;;1999.90;999.90;;;11.70;99.90;;;;;;5094306;28;20485;-67
2023/10/06 03:26:04;;;;;;;1999.90;999.90;;;11.70;99.90;;;;;;5094196;28;20430;-68
2023/10/06 03:28:36;;;;;;;1999.90;999.90;;;11.60;99.90;;;;;;5093817;28;20417;-67
2023/10/06 03:31:21;;;;;;;1999.90;999.90;;;11.60;99.90;;;;;;5093893;28;20583;-68
2023/10/06 03:33:54;;;;;;;1999.90;999.90;;;11.60;99.90;;;;;;5094687;28;20420;-69
2023/10/06 03:36:37;;;;;;;1999.90;999.90;;;11.70;99.90;;;;;;5094126;28;20404;-69
2023/10/06 03:39:07;;;;;;;1999.90;999.90;;;11.70;99.90;;;;;;5094414;28;20460;-69
2023/10/06 03:41:36;;;;;;;1999.90;999.90;;;11.70;99.90;;;;;;5094172;28;20434;-69
2023/10/06 03:44:06;;;;;;;1999.90;999.90;;;11.80;99.90;;;;;;5095003;28;20415;-69
2023/10/06 03:46:37;;;;;;;1999.90;999.90;;;11.80;99.90;;;;;;5095204;28;20437;-68
2023/10/06 03:49:03;;;;;;;1999.90;999.90;;;11.80;99.90;;;;;;5094521;28;20412;-67
2023/10/06 03:51:37;;;;;;;1999.90;999.90;;;11.80;99.90;;;;;;5094684;28;20851;-68
2023/10/06 03:54:04;;;;;;;1999.90;999.90;;;11.80;99.90;;;;;;5094339;28;20392;-69
2023/10/06 03:56:30;;;;;;;1999.90;999.90;;;11.80;99.90;;;;;;5093944;28;20927;-69
2023/10/06 03:58:56;;;;;;;1999.90;999.90;;;11.90;99.90;;;;;;5094029;28;20491;-69
2023/10/06 04:01:27;;;;;;;1999.90;999.90;;;11.90;99.90;;;;;;5093763;28;20467;-69
2023/10/06 04:03:59;;;;;;;1999.90;999.90;;;11.90;99.90;;;;;;5093668;28;20207;-67
2023/10/06 04:06:28;;;;;;;1999.90;999.90;;;12.00;99.90;;;;;;5093271;28;20455;-66
2023/10/06 04:08:56;;;;;;;1999.90;999.90;;;11.90;99.90;;;;;;5093410;28;20900;-68
2023/10/06 04:11:22;;;;;;;1999.90;999.90;;;11.90;99.90;;;;;;5093308;28;20452;-69
2023/10/06 04:13:48;;;;;;;1999.90;999.90;;;11.80;99.90;;;;;;5093267;28;20486;-69
2023/10/06 04:16:14;;;;;;;1999.90;999.90;;;11.80;99.90;;;;;;5093262;28;20210;-69
2023/10/06 04:18:40;;;;;;;1999.90;999.90;;;11.80;99.90;;;;;;5092951;28;20463;-69
2023/10/06 04:21:11;;;;;;;1999.90;999.90;;;11.80;99.90;;;;;;5093018;28;20424;-68
2023/10/06 04:23:41;;;;;;;1999.90;999.90;;;11.80;99.90;;;;;;5093252;28;20420;-69
2023/10/06 04:26:13;;;;;;;1999.90;999.90;;;11.80;99.90;;;;;;5093134;28;20879;-68
2023/10/06 04:28:39;;;;;;;1999.90;999.90;;;11.80;99.90;;;;;;5092878;28;20836;-68
2023/10/06 04:31:05;;;;;;;1999.90;999.90;;;11.80;99.90;;;;;;5092862;28;20526;-67
2023/10/06 04:33:32;;;;;;;1999.90;999.90;;;11.70;99.90;;;;;;5092705;28;20181;-68
2023/10/06 04:36:11;;;;;;;1999.90;999.90;;;11.70;99.90;;;;;;5092839;28;20408;-68
2023/10/06 04:38:39;;;;;;;1999.90;999.90;;;11.80;99.90;;;;;;5092568;28;20452;-68
2023/10/06 04:41:09;;;;;;;1999.90;999.90;;;11.80;99.90;;;;;;5092619;28;20421;-68
2023/10/06 04:43:36;;;;;;;1999.90;999.90;;;11.80;99.90;;;;;;5092739;28;20401;-67
2023/10/06 04:46:05;;;;;;;1999.90;999.90;;;11.80;99.90;;;;;;5092538;28;20843;-68
2023/10/06 04:48:32;;;;;;;1999.90;999.90;;;11.80;99.90;;;;;;5092400;28;20404;-69
2023/10/06 04:50:57;;;;;;;1999.90;999.90;;;11.80;99.90;;;;;;5092652;28;20503;-68
2023/10/06 04:53:23;;;;;;;1999.90;999.90;;;11.80;99.90;;;;;;5092474;28;20419;-69
2023/10/06 04:55:48;;;;;;;1999.90;999.90;;;11.80;99.90;;;;;;5092448;28;20185;-68
2023/10/06 04:58:20;;;;;;;1999.90;999.90;;;11.80;99.90;;;;;;5092165;28;20194;-68
2023/10/06 05:00:53;;;;;;;1999.90;999.90;;;11.80;99.90;;;;;;5092342;28;20194;-69
2023/10/06 05:03:19;;;;;;;1999.90;999.90;;;11.70;99.90;;;;;;5092496;28;20436;-68
2023/10/06 05:05:45;;;;;;;1999.90;999.90;;;11.70;99.90;;;;;;5092430;28;20418;-69
2023/10/06 05:08:14;;;;;;;1999.90;999.90;;;11.70;99.90;;;;;;5092069;28;21164;-69
2023/10/06 05:10:40;;;;;;;1999.90;999.90;;;11.70;99.90;;;;;;5092085;28;20210;-69
2023/10/06 05:13:06;;;;;;;1999.90;999.90;;;11.70;99.90;;;;;;5092186;28;20421;-67
2023/10/06 05:15:35;;;;;;;1999.90;999.90;;;11.70;99.90;;;;;;5092310;28;20178;-68
2023/10/06 05:18:03;;;;;;;1999.90;999.90;;;11.60;99.90;;;;;;5091786;28;20991;-69
2023/10/06 05:20:30;;;;;;;1999.90;999.90;;;11.50;99.90;;;;;;5092108;28;20542;-68
2023/10/06 05:23:02;;;;;;;1999.90;999.90;;;11.50;99.90;;;;;;5092126;28;20487;-68
2023/10/06 05:25:29;;;;;;;1999.90;999.90;;;11.50;99.90;;;;;;5091982;28;20506;-68
2023/10/06 05:27:57;;;;;;;1999.90;999.90;;;11.40;99.90;;;;;;5091697;28;20425;-68
2023/10/06 05:30:23;;;;;;;1999.90;999.90;;;11.40;99.90;;;;;;5091898;28;20435;-69
2023/10/06 05:32:48;;;;;;;1999.90;999.90;;;11.40;99.90;;;;;;5091846;28;20400;-68
2023/10/06 05:35:14;;;;;;;1999.90;999.90;;;11.40;99.90;;;;;;5091948;28;20623;-69
2023/10/06 05:37:42;;;;;;;1999.90;999.90;;;11.40;99.90;;;;;;5091588;28;20537;-69
2023/10/06 05:40:12;;;;;;;1999.90;999.90;;;11.40;99.90;;;;;;5091812;28;20190;-68
2023/10/06 05:42:40;;;;;;;1999.90;999.90;;;11.40;99.90;;;;;;5091874;28;20491;-69
2023/10/06 05:45:15;;;;;;;1999.90;999.90;;;11.40;99.90;;;;;;5092089;28;20413;-68
2023/10/06 05:47:58;;;;;;;1999.90;999.90;;;11.40;99.90;;;;;;5091712;28;20506;-68
2023/10/06 05:50:28;;;;;;;1999.90;999.90;;;11.40;99.90;;;;;;5091784;28;20528;-67
2023/10/06 05:52:57;;;;;;;1999.90;999.90;;;11.40;99.90;;;;;;5091818;28;20412;-68
2023/10/06 05:55:24;;;;;;;1999.90;999.90;;;11.40;99.90;;;;;;5091830;28;20789;-69
2023/10/06 05:57:55;;;;;;;1999.90;999.90;;;11.30;99.90;;;;;;5091778;28;20546;-67
2023/10/06 06:00:25;;;;;;;1999.90;999.90;;;11.40;99.90;;;;;;5091652;28;20413;-68
2023/10/06 06:02:58;;;;;;;1999.90;999.90;;;11.40;99.90;;;;;;5091752;28;20429;-68
2023/10/06 06:05:24;;;;;;;1999.90;999.90;;;11.30;99.90;;;;;;5091655;28;20496;-68
2023/10/06 06:07:51;;;;;;;1999.90;999.90;;;11.40;99.90;;;;;;5091390;28;20468;-69
2023/10/06 06:10:18;;;;;;;1999.90;999.90;;;11.30;99.90;;;;;;5091435;28;20440;-68
2023/10/06 06:12:43;;;;;;;1999.90;999.90;;;11.40;99.90;;;;;;5091528;28;20422;-69
2023/10/06 06:15:12;;;;;;;1999.90;999.90;;;11.50;99.90;;;;;;5091732;28;20441;-68
2023/10/06 06:17:38;;;;;;;1999.90;999.90;;;11.50;99.90;;;;;;5091188;28;20202;-68
2023/10/06 06:20:07;;;;;;;1999.90;999.90;;;11.60;99.90;;;;;;5091420;28;20436;-69
2023/10/06 06:22:37;;;;;;;1999.90;999.90;;;11.60;99.90;;;;;;5091420;28;20409;-69
2023/10/06 06:25:05;;;;;;;1999.90;999.90;;;11.70;99.90;;;;;;5091826;28;20461;-69
2023/10/06 06:27:32;;;;;;;1999.90;999.90;;;11.70;99.90;;;;;;5091270;28;20416;-69
2023/10/06 06:29:58;;;;;;;1999.90;999.90;;;11.80;99.90;;;;;;5091519;28;20853;-69
2023/10/06 06:32:25;;;;;;;1999.90;999.90;;;11.80;99.90;;;;;;5091582;28;20443;-68
2023/10/06 06:34:51;;;;;;;1999.90;999.90;;;11.90;99.90;;;;;;5091565;28;20405;-69
2023/10/06 06:37:17;;;;;;;1999.90;999.90;;;12.00;99.90;;;;;;5091532;28;20451;-69
2023/10/06 06:39:44;;;;;;;1999.90;999.90;;;12.10;99.90;;;;;;5091350;28;20487;-69
2023/10/06 06:42:10;;;;;;;1999.90;999.90;;;12.10;99.90;;;;;;5091868;28;20175;-69
2023/10/06 06:44:36;;;;;;;1999.90;999.90;;;12.30;99.90;;;;;;5092448;28;20412;-67
2023/10/06 06:47:02;;;;;;;1999.90;999.90;;;12.30;99.90;;;;;;5106438;28;20753;-68
2023/10/06 06:49:28;;;;;;;1999.90;999.90;;;12.40;99.90;;;;;;5095198;28;20283;-69
2023/10/06 06:51:54;;;;;;;1999.90;999.90;;;12.50;99.90;;;;;;5103212;28;20521;-69
2023/10/06 06:54:20;;;;;;;1999.90;999.90;;;12.60;99.90;;;;;;5114267;28;20539;-69
2023/10/06 06:56:47;;;;;;;1999.90;999.90;;;12.70;99.90;;;;;;5115031;28;20398;-68
2023/10/06 06:59:13;;;;;;;1999.90;999.90;;;12.70;99.90;;;;;;5112284;28;20187;-68
2023/10/06 07:01:39;;;;;;;1999.90;999.90;;;12.70;99.90;;;;;;5102890;28;20817;-69
2023/10/06 07:04:06;;;;;;;1999.90;999.90;;;12.80;99.90;;;;;;5111481;28;20980;-69
2023/10/06 07:06:32;;;;;;;1999.90;999.90;;;12.90;99.90;;;;;;5109056;28;20224;-69
2023/10/06 07:08:57;;;;;;;1999.90;999.90;;;13.00;99.90;;;;;;5094691;28;20973;-68
2023/10/06 07:11:23;;;;;;;1999.90;999.90;;;13.00;99.90;;;;;;5102625;28;20208;-68
2023/10/06 07:13:48;;;;;;;1999.90;999.90;;;13.10;99.90;;;;;;5099946;28;20664;-68
2023/10/06 07:16:14;;;;;;;1999.90;999.90;;;13.20;99.90;;;;;;5101640;28;20176;-68
2023/10/06 07:18:40;;;;;;;1999.90;999.90;;;13.30;99.90;;;;;;5109292;28;20718;-67
2023/10/06 07:21:09;;;;;;;1999.90;999.90;;;13.40;99.90;;;;;;5106181;28;20255;-69
2023/10/06 07:23:37;;;;;;;1999.90;999.90;;;13.50;99.90;;;;;;5109564;28;20819;-69
2023/10/06 07:26:09;;;;;;;1999.90;999.90;;;13.60;99.90;;;;;;5106058;28;20422;-69
2023/10/06 07:28:37;;;;;;;1999.90;999.90;;;13.70;99.90;;;;;;5112108;28;20410;-70
2023/10/06 07:31:16;;;;;;;1999.90;999.90;;;13.70;99.90;;;;;;5095695;28;20468;-68
2023/10/06 07:33:45;;;;;;;1999.90;999.90;;;13.80;99.90;;;;;;5094826;28;20428;-67
2023/10/06 07:36:17;;;;;;;1999.90;999.90;;;13.90;99.90;;;;;;5104272;28;20411;-69
2023/10/06 07:38:43;;;;;;;1999.90;999.90;;;14.00;99.90;;;;;;5106805;28;20540;-69
2023/10/06 07:41:20;;;;;;;1999.90;999.90;;;14.20;99.90;;;;;;5094117;28;20921;-69
2023/10/06 07:43:46;;;;;;;1999.90;999.90;;;14.40;99.90;;;;;;5106240;28;20461;-69
2023/10/06 07:46:13;;;;;;;1999.90;999.90;;;14.60;99.90;;;;;;5114190;28;20396;-68
2023/10/06 07:48:39;;;;;;;1999.90;999.90;;;14.70;99.90;;;;;;5107976;28;20426;-68
2023/10/06 07:51:08;;;;;;;1999.90;999.90;;;14.80;99.90;;;;;;5105404;28;20466;-68
2023/10/06 07:53:38;;;;;;;1999.90;999.90;;;15.00;99.90;;;;;;5097355;28;20412;-68
2023/10/06 07:56:08;;;;;;;1999.90;999.90;;;15.00;99.90;;;;;;5113946;28;21079;-68
2023/10/06 07:58:38;;;;;;;1999.90;999.90;;;15.00;99.90;;;;;;5113569;28;20838;-68
2023/10/06 08:01:07;;;;;;;1999.90;999.90;;;15.00;99.90;;;;;;5109154;28;20959;-68
2023/10/06 08:03:39;;;;;;;1999.90;999.90;;;15.00;99.90;;;;;;5091099;28;20407;-68
2023/10/06 08:06:06;;;;;;;1999.90;999.90;;;15.00;99.90;;;;;;5097808;28;20943;-68
2023/10/06 08:08:35;;;;;;;1999.90;999.90;;;15.00;99.90;;;;;;5092844;28;20396;-68
2023/10/06 08:11:02;;;;;;;1999.90;999.90;;;15.10;99.90;;;;;;5100433;28;21067;-68
2023/10/06 08:13:30;;;;;;;1999.90;999.90;;;15.20;99.90;;;;;;5104972;28;20506;-68
2023/10/06 08:15:59;;;;;;;1999.90;999.90;;;15.20;99.90;;;;;;5113538;28;20402;-68
2023/10/06 08:18:28;;;;;;;1999.90;999.90;;;15.30;99.90;;;;;;5111114;28;20447;-68
2023/10/06 08:20:54;;;;;;;1999.90;999.90;;;15.30;99.90;;;;;;5096231;28;20821;-68
2023/10/06 08:23:20;;;;;;;1999.90;999.90;;;15.30;99.90;;;;;;5102906;28;20917;-68
2023/10/06 08:25:46;;;;;;;1999.90;999.90;;;15.40;99.90;;;;;;5095427;28;20441;-68
2023/10/06 08:28:12;;;;;;;1999.90;999.90;;;15.50;99.90;;;;;;5098043;28;20882;-69
2023/10/06 08:30:38;;;;;;;1999.90;999.90;;;15.60;99.90;;;;;;5107061;28;20445;-68
2023/10/06 08:33:08;;;;;;;1999.90;999.90;;;15.60;99.90;;;;;;5096482;28;20453;-68
2023/10/06 08:35:35;;;;;;;1999.90;999.90;;;15.70;99.90;;;;;;5092287;28;20773;-68
2023/10/06 08:38:01;;;;;;;1999.90;999.90;;;15.80;99.90;;;;;;5101063;28;20514;-68
2023/10/06 08:40:32;;;;;;;1999.90;999.90;;;15.90;99.90;;;;;;5099683;28;20473;-68
2023/10/06 08:42:58;;;;;;;1999.90;999.90;;;16.10;99.90;;;;;;5095090;28;20415;-68
2023/10/06 08:45:25;;;;;;;1999.90;999.90;;;16.10;99.90;;;;;;5096639;28;20785;-68
2023/10/06 08:47:58;;;;;;;1999.90;999.90;;;16.20;99.90;;;;;;5101888;28;20177;-68
2023/10/06 08:50:25;;;;;;;1999.90;999.90;;;16.30;99.90;;;;;;5099948;28;20849;-68
2023/10/06 08:52:52;;;;;;;1999.90;999.90;;;16.40;99.90;;;;;;5088359;28;20493;-68
2023/10/06 08:55:19;;;;;;;1999.90;999.90;;;16.40;99.90;;;;;;5100262;28;20407;-68
2023/10/06 08:57:49;;;;;;;1999.90;999.90;;;16.50;99.90;;;;;;5107577;28;20494;-68
2023/10/06 09:00:16;;;;;;;1999.90;999.90;;;16.50;99.90;;;;;;5107828;28;20951;-69
2023/10/06 09:02:43;;;;;;;1999.90;999.90;;;16.50;99.90;;;;;;5108689;28;20448;-67
2023/10/06 09:05:13;;;;;;;1999.90;999.90;;;16.60;99.90;;;;;;5107304;28;20410;-68
2023/10/06 09:07:59;;;;;;;1999.90;999.90;;;16.70;99.90;;;;;;5083323;28;20429;-68
2023/10/06 09:10:27;;;;;;;1999.90;999.90;;;16.70;99.90;;;;;;5098781;28;20446;-67
2023/10/06 09:13:16;;;;;;;1999.90;999.90;;;16.90;99.90;;;;;;5107420;28;20431;-68
2023/10/06 09:16:03;;;;;;;1999.90;999.90;;;17.00;99.90;;;;;;5107859;28;21112;-67
2023/10/06 09:18:29;;;;;;;1999.90;999.90;;;17.00;99.90;;;;;;5107000;28;20451;-68
2023/10/06 09:21:09;;;;;;;1999.90;999.90;;;17.10;99.90;;;;;;5099692;28;21167;-67
2023/10/06 09:23:40;;;;;;;1999.90;999.90;;;17.20;99.90;;;;;;5098643;28;20624;-68
2023/10/06 09:26:11;;;;;;;1999.90;999.90;;;17.30;99.90;;;;;;5093205;28;20504;-69
2023/10/06 09:28:55;;;;;;;1999.90;999.90;;;17.30;99.90;;;;;;5066091;28;20452;-68
2023/10/06 09:31:38;;;;;;;1999.90;999.90;;;17.40;99.90;;;;;;5067255;28;20462;-68
2023/10/06 09:34:07;;;;;;;1999.90;999.90;;;17.40;99.90;;;;;;5067405;28;20413;-68
2023/10/06 09:36:33;;;;;;;1999.90;999.90;;;17.50;99.90;;;;;;5094558;28;20413;-68
2023/10/06 09:39:14;;;;;;;1999.90;999.90;;;17.60;99.90;;;;;;5094077;28;20520;-68
2023/10/06 09:41:40;;;;;;;1999.90;999.90;;;17.60;99.90;;;;;;5066789;28;20535;-68
2023/10/06 09:44:11;;;;;;;1999.90;999.90;;;17.70;99.90;;;;;;5067238;28;20411;-68
2023/10/06 09:46:41;;;;;;;1999.90;999.90;;;17.70;99.90;;;;;;5067603;28;20417;-68
2023/10/06 09:49:11;;;;;;;1999.90;999.90;;;17.80;99.90;;;;;;5067208;28;20450;-68
2023/10/06 09:51:36;;;;;;;1999.90;999.90;;;17.90;99.90;;;;;;5073670;28;20443;-68
2023/10/06 09:54:05;;;;;;;1999.90;999.90;;;18.00;99.90;;;;;;5091354;28;20424;-68
2023/10/06 09:56:32;;;;;;;1999.90;999.90;;;18.00;99.90;;;;;;5097349;28;20419;-68
2023/10/06 09:58:59;;;;;;;1999.90;999.90;;;18.00;99.90;;;;;;5102793;28;20447;-68
2023/10/06 10:01:28;;;;;;;1999.90;999.90;;;18.00;99.90;;;;;;5098701;28;20439;-68
2023/10/06 10:03:55;;;;;;;1999.90;999.90;;;18.10;99.90;;;;;;5107458;28;20440;-68
2023/10/06 10:06:23;;;;;;;1999.90;999.90;;;18.20;99.90;;;;;;5107786;28;20413;-67
2023/10/06 10:08:51;;;;;;;1999.90;999.90;;;18.20;99.90;;;;;;5106506;28;20427;-67
2023/10/06 10:11:28;;;;;;;1999.90;999.90;;;18.40;99.90;;;;;;5106247;28;20449;-68
2023/10/06 10:14:37;;;;;;;1999.90;999.90;;;18.40;99.90;;;;;;5107035;28;20415;-68
2023/10/06 10:17:13;;;;;;;1999.90;999.90;;;18.60;99.90;;;;;;5107770;28;20435;-68
2023/10/06 10:19:43;;;;;;;1999.90;999.90;;;18.60;99.90;;;;;;5101782;28;20419;-68
2023/10/06 10:22:13;;;;;;;1999.90;999.90;;;18.70;99.90;;;;;;5090831;28;20496;-67
2023/10/06 10:24:39;;;;;;;1999.90;999.90;;;18.70;99.90;;;;;;5091171;28;20439;-68
2023/10/06 10:27:14;;;;;;;1999.90;999.90;;;18.70;99.90;;;;;;5082721;28;20464;-68
2023/10/06 10:29:44;;;;;;;1999.90;999.90;;;18.90;99.90;;;;;;5090377;28;20493;-68
2023/10/06 10:32:22;;;;;;;1999.90;999.90;;;19.00;99.90;;;;;;5097884;28;20414;-68
2023/10/06 10:35:10;;;;;;;1999.90;999.90;;;19.20;99.90;;;;;;5096350;28;20408;-68
2023/10/06 10:37:51;;;;;;;1999.90;999.90;;;19.30;99.90;;;;;;5110622;28;21644;-68
2023/10/06 10:40:22;;;;;;;1999.90;999.90;;;19.40;99.90;;;;;;5111241;28;20427;-69
2023/10/06 10:42:53;;;;;;;1999.90;999.90;;;19.40;99.90;;;;;;5111144;28;20412;-68
2023/10/06 10:45:31;;;;;;;1999.90;999.90;;;19.50;99.90;;;;;;5110034;28;21011;-68
2023/10/06 10:47:58;;;;;;;1999.90;999.90;;;19.60;99.90;;;;;;5110392;28;20427;-69
2023/10/06 10:50:48;;;;;;;1999.90;999.90;;;19.60;99.90;;;;;;5110541;28;20498;-68
2023/10/06 10:53:17;;;;;;;1999.90;999.90;;;19.80;99.90;;;;;;5100077;28;20429;-68
2023/10/06 10:55:45;;;;;;;1999.90;999.90;;;19.80;99.90;;;;;;5110502;28;20491;-69
2023/10/06 10:58:11;;;;;;;1999.90;999.90;;;19.90;99.90;;;;;;5110325;28;20455;-68
2023/10/06 11:00:36;;;;;;;1999.90;999.90;;;20.00;99.20;;;;;;5111411;28;20803;-68
2023/10/06 11:03:04;;;;;;;1999.90;999.90;;;20.10;99.80;;;;;;5110278;28;20174;-68
2023/10/06 11:05:31;;;;;;;1999.90;999.90;;;20.20;98.40;;;;;;5110450;28;20180;-68
2023/10/06 11:08:02;;;;;;;1999.90;999.90;;;20.30;97.80;;;;;;5110975;28;20512;-68
2023/10/06 11:10:28;;;;;;;1999.90;999.90;;;20.30;97.50;;;;;;5110538;28;20520;-68
2023/10/06 11:13:19;;;;;;;1999.90;999.90;;;20.40;97.70;;;;;;5110372;28;20419;-69
2023/10/06 11:15:46;;;;;;;1999.90;999.90;;;20.40;95.20;;;;;;5110886;28;20416;-68
2023/10/06 11:18:13;;;;;;;1999.90;999.90;;;20.50;94.90;;;;;;5109833;28;20452;-68
2023/10/06 11:20:41;;;;;;;1999.90;999.90;;;20.70;94.40;;;;;;5110191;28;20428;-68
2023/10/06 11:23:08;;;;;;;1999.90;999.90;;;21.00;92.80;;;;;;5110750;28;20472;-68
2023/10/06 11:25:38;;;;;;;1999.90;999.90;;;21.30;91.30;;;;;;5110592;28;20659;-68
2023/10/06 11:28:08;;;;;;;1999.90;999.90;;;21.60;87.10;;;;;;5109889;28;20422;-68
2023/10/06 11:30:38;;;;;;;1999.90;999.90;;;21.70;86.20;;;;;;5110164;28;20448;-69
2023/10/06 11:33:06;;;;;;;1999.90;999.90;;;22.10;87.90;;;;;;5110301;28;20422;-68
2023/10/06 11:35:33;;;;;;;1999.90;999.90;;;22.30;78.00;;;;;;5111132;28;20423;-69
2023/10/06 11:38:01;;;;;;;1999.90;999.90;;;22.30;70.90;;;;;;5109908;28;20466;-69
2023/10/06 11:40:30;;;;;;;1999.90;999.90;;;22.60;68.70;;;;;;5109739;28;20791;-69
2023/10/06 11:42:55;;;;;;;1999.90;999.90;;;23.10;67.60;;;;;;5110674;28;20418;-66
2023/10/06 11:45:27;;;;;;;1999.90;999.90;;;23.10;58.40;;;;;;5110772;28;20423;-68
2023/10/06 11:47:53;;;;;;;1999.90;999.90;;;22.70;58.20;;;;;;5109902;28;20177;-69
2023/10/06 11:50:24;;;;;;;1999.90;999.90;;;22.90;59.70;;;;;;5109876;28;20432;-67
2023/10/06 11:52:50;;;;;;;1999.90;999.90;;;23.40;54.90;;;;;;5110180;28;20431;-66
2023/10/06 11:55:33;;;;;;;1999.90;999.90;;;23.70;52.00;;;;;;5109888;28;20427;-69
2023/10/06 11:58:00;;;;;;;1999.90;999.90;;;24.10;49.20;;;;;;5110402;28;20443;-69
2023/10/06 12:00:43;;;;;;;1999.90;999.90;;;24.40;45.30;;;;;;5109705;28;20434;-69
2023/10/06 12:03:12;;;;;;;1999.90;999.90;;;24.50;40.40;;;;;;5110185;28;20417;-69
2023/10/06 12:05:42;;;;;;;1999.90;999.90;;;23.90;36.30;;;;;;5109454;28;20385;-69
2023/10/06 12:08:09;;;;;;;1999.90;999.90;;;23.80;36.30;;;;;;5109213;28;20474;-69
2023/10/06 12:11:03;;;;;;;1999.90;999.90;;;24.00;35.60;;;;;;5109382;28;20489;-66